Time;durP1;ratioP1;P1;durP2;ratioP2;P2;SDS_P1;SDS_P2;PMS_P1;PMS_P2;Temp;Humidity;BMP_temperature;BMP_pressure;BME280_temperature;BME280_humidity;BME280_pressure;Samples;Min_cycle;Max_cycle;Signal;HPM_P1;HPM_P2
2022/10/28 00:01:51;;;;;;;335.77;317.88;;;;;;;12.59;100.00;101165.13;4984257;28;20228;-81
2022/10/28 00:04:18;;;;;;;282.23;267.17;;;;;;;12.59;100.00;101165.13;4998592;28;20221;-83
2022/10/28 00:06:45;;;;;;;253.52;239.68;;;12.40;99.90;;;12.57;100.00;101173.94;4985386;28;20232;-82
2022/10/28 00:09:12;;;;;;;214.07;202.45;;;12.40;99.90;;;12.62;100.00;101180.19;5002956;28;20759;-83
2022/10/28 00:11:39;;;;;;;219.73;209.05;;;12.40;99.90;;;12.71;100.00;101196.22;5010149;28;20319;-83
2022/10/28 00:14:08;;;;;;;185.93;176.38;;;12.50;99.90;;;12.73;100.00;101194.50;5005343;28;20692;-83
2022/10/28 00:16:37;;;;;;;204.48;194.05;;;12.50;99.90;;;12.68;100.00;101180.28;5002575;28;20259;-84
2022/10/28 00:19:06;;;;;;;316.17;300.58;;;12.50;99.90;;;12.71;100.00;101183.84;5004634;28;20239;-83
2022/10/28 00:21:36;;;;;;;276.58;262.83;;;12.70;99.90;;;12.93;100.00;101202.69;5005231;28;20240;-83
2022/10/28 00:24:05;;;;;;;258.00;245.13;;;14.10;99.90;;;13.03;100.00;101202.84;4996534;28;20228;-83
2022/10/28 00:26:37;;;;;;;264.15;250.10;;;12.70;99.90;;;13.00;100.00;101204.53;4987680;28;20335;-82
2022/10/28 00:29:15;;;;;;;237.98;225.48;;;12.70;99.90;;;12.94;100.00;101200.06;4985851;28;20250;-83
2022/10/28 00:31:43;;;;;;;222.82;211.15;;;12.80;99.90;;;13.09;100.00;101207.34;4984649;28;20279;-82
2022/10/28 00:34:14;;;;;;;206.80;194.60;;;12.90;99.90;;;13.05;100.00;101208.19;4982594;28;20277;-82
2022/10/28 00:36:44;;;;;;;182.35;173.18;;;12.90;99.90;;;13.07;100.00;101209.97;4985522;28;20308;-83
2022/10/28 00:39:17;;;;;;;116.65;110.10;;;12.90;99.90;;;13.03;100.00;101210.81;4984125;28;20686;-82
2022/10/28 00:41:49;;;;;;;141.32;132.55;;;12.80;99.90;;;13.00;100.00;101205.47;4988877;28;20291;-83
2022/10/28 00:44:56;;;;;;;150.35;140.13;;;12.90;99.90;;;13.05;100.00;101209.06;4986031;28;20240;-83
2022/10/28 00:47:57;;;;;;;141.88;133.68;;;12.90;99.90;;;13.07;100.00;101203.78;4991518;28;20232;-83
2022/10/28 00:50:50;;;;;;;146.88;138.02;;;12.90;99.90;;;13.10;100.00;101202.03;4986807;28;20233;-83
2022/10/28 00:53:28;;;;;;;136.52;128.35;;;12.90;99.90;;;13.10;100.00;101212.66;4988983;28;20221;-83
2022/10/28 00:55:56;;;;;;;128.38;121.50;;;12.90;99.90;;;13.10;100.00;101206.47;4994035;28;20677;-83
2022/10/28 00:58:25;;;;;;;163.00;153.93;;;12.90;99.90;;;13.06;100.00;101210.84;4987685;28;20355;-83
2022/10/28 01:00:53;;;;;;;154.18;144.88;;;12.90;99.90;;;13.02;100.00;101202.84;4984166;28;20308;-82
2022/10/28 01:03:21;;;;;;;203.40;191.18;;;;;;;13.05;100.00;101206.41;4971427;28;20257;-82
2022/10/28 01:05:50;;;;;;;209.00;197.25;;;;;;;13.03;100.00;101210.81;4999028;28;20227;-83
2022/10/28 01:08:18;;;;;;;169.40;159.38;;;;;;;13.09;100.00;101210.88;5000317;28;20241;-83
2022/10/28 01:11:19;;;;;;;268.85;253.43;;;13.10;99.90;;;13.16;100.00;101209.19;4983136;28;20231;-82
2022/10/28 01:14:10;;;;;;;287.10;271.00;;;13.00;99.90;;;13.17;100.00;101218.06;4988803;28;20346;-82
2022/10/28 01:17:04;;;;;;;312.73;296.35;;;13.00;99.90;;;13.19;100.00;101216.34;4993059;28;20266;-82
2022/10/28 01:20:11;;;;;;;249.25;236.50;;;13.00;99.90;;;13.22;100.00;101224.34;4995037;28;20236;-82
2022/10/28 01:23:00;;;;;;;273.95;259.45;;;13.10;99.90;;;13.24;100.00;101226.13;4991737;28;20259;-82
2022/10/28 01:25:47;;;;;;;224.30;211.85;;;13.10;99.90;;;13.26;100.00;101219.06;4989421;28;20237;-83
2022/10/28 01:29:17;;;;;;;203.82;192.70;;;13.20;99.90;;;13.33;100.00;101225.34;4986125;28;20232;-83
2022/10/28 01:32:36;;;;;;;203.10;192.63;;;13.20;99.90;;;13.37;100.00;101230.69;4946298;28;20244;-81
2022/10/28 01:35:26;;;;;;;217.95;205.73;;;13.20;99.90;;;13.36;100.00;101218.28;4954713;28;20225;-83
2022/10/28 01:38:41;;;;;;;190.93;180.98;;;13.20;99.90;;;13.34;100.00;101212.06;5000367;28;20235;-83
2022/10/28 01:41:29;;;;;;;210.32;200.00;;;13.20;99.90;;;13.39;100.00;101220.09;4975135;28;20255;-83
2022/10/28 01:44:06;;;;;;;235.75;223.75;;;13.20;99.90;;;13.39;100.00;101214.78;4989985;28;20255;-82
2022/10/28 01:47:04;;;;;;;281.15;267.92;;;13.20;99.90;;;13.34;100.00;101211.19;4982104;28;20283;-82
2022/10/28 01:49:48;;;;;;;352.45;335.00;;;13.20;99.90;;;13.38;100.00;101220.97;4986887;28;20228;-83
2022/10/28 01:52:21;;;;;;;361.85;342.15;;;13.30;99.90;;;13.40;100.00;101222.75;4986004;28;20307;-82
2022/10/28 01:54:55;;;;;;;331.40;314.70;;;13.20;99.90;;;13.43;100.00;101219.25;4989182;28;20312;-82
2022/10/28 01:57:24;;;;;;;344.35;326.42;;;13.20;99.90;;;13.36;100.00;101207.66;4987711;28;20228;-82
2022/10/28 01:59:52;;;;;;;329.20;312.25;;;;;;;13.36;100.00;101212.09;4985161;28;20705;-83
2022/10/28 02:02:19;;;;;;;374.50;355.23;;;;;;;13.34;100.00;101208.53;5003568;28;20289;-82
2022/10/28 02:04:46;;;;;;;346.50;328.60;;;;;;;13.31;100.00;101211.16;4986235;28;20307;-83
2022/10/28 02:07:15;;;;;;;339.35;322.98;;;13.20;99.90;;;13.30;100.00;101222.66;4992760;28;20310;-83
2022/10/28 02:10:02;;;;;;;347.20;329.77;;;13.10;99.90;;;13.30;100.00;101214.69;4987278;28;20287;-82
2022/10/28 02:12:38;;;;;;;423.50;401.15;;;13.10;99.90;;;13.29;100.00;101210.25;5000018;28;20259;-83
2022/10/28 02:15:29;;;;;;;377.08;356.17;;;13.20;99.90;;;13.29;100.00;101215.56;4986614;28;20327;-83
2022/10/28 02:18:39;;;;;;;372.27;351.92;;;13.10;99.90;;;13.28;100.00;101214.66;4985470;28;20296;-83
2022/10/28 02:21:27;;;;;;;361.05;342.45;;;13.20;99.90;;;13.28;100.00;101212.00;4987537;28;20681;-83
2022/10/28 02:24:12;;;;;;;308.15;291.80;;;13.10;99.90;;;13.28;100.00;101205.81;4981515;28;20225;-82
2022/10/28 02:26:46;;;;;;;321.40;305.65;;;13.10;99.90;;;13.26;100.00;101197.81;4985845;28;20251;-82
2022/10/28 02:29:21;;;;;;;355.60;337.35;;;13.10;99.90;;;13.24;100.00;101198.69;4980063;28;20258;-82
2022/10/28 02:31:54;;;;;;;294.40;279.52;;;13.10;99.90;;;13.23;100.00;101207.53;4981226;28;20326;-82
2022/10/28 02:34:34;;;;;;;284.10;268.83;;;13.10;99.90;;;13.22;100.00;101206.63;4976894;28;20311;-82
2022/10/28 02:37:08;;;;;;;289.95;276.10;;;13.10;99.90;;;13.23;100.00;101202.22;4979760;28;20319;-83
2022/10/28 02:39:39;;;;;;;299.90;283.88;;;13.10;99.90;;;13.23;100.00;101200.44;4979321;28;20704;-83
2022/10/28 02:42:25;;;;;;;244.40;232.00;;;13.10;99.90;;;13.24;100.00;101196.91;4985322;28;20569;-82
2022/10/28 02:44:59;;;;;;;198.38;187.45;;;13.10;99.90;;;13.24;100.00;101204.00;4981170;28;20229;-82
2022/10/28 02:47:31;;;;;;;225.65;213.73;;;13.10;99.90;;;13.31;100.00;101203.19;4980568;28;20323;-83
2022/10/28 02:50:04;;;;;;;214.30;202.60;;;13.10;99.90;;;13.32;100.00;101186.38;4984998;28;20228;-82
2022/10/28 02:52:33;;;;;;;207.55;197.45;;;13.20;99.90;;;13.33;100.00;101201.44;5002337;28;20289;-83
2022/10/28 02:55:03;;;;;;;220.10;207.68;;;13.20;99.90;;;13.31;100.00;101201.41;4986114;28;20240;-83
2022/10/28 02:57:40;;;;;;;150.35;141.55;;;13.20;99.90;;;13.39;100.00;101207.69;4978975;28;20323;-82
2022/10/28 03:00:14;;;;;;;184.10;175.40;;;13.30;99.90;;;13.43;100.00;101198.88;5000680;28;20247;-83
2022/10/28 03:02:41;;;;;;;166.20;157.35;;;13.30;99.90;;;13.42;100.00;101193.53;4983433;28;20320;-83
2022/10/28 03:05:09;;;;;;;131.77;122.43;;;13.30;99.90;;;13.40;100.00;101185.56;4960644;28;20292;-82
2022/10/28 03:07:36;;;;;;;92.32;86.57;;;13.30;99.90;;;13.40;100.00;101188.22;4983319;28;20315;-83
2022/10/28 03:10:03;;;;;;;129.43;122.53;;;13.30;99.90;;;13.38;100.00;101189.06;4991160;28;20314;-83
2022/10/28 03:12:30;;;;;;;143.75;136.23;;;13.20;99.90;;;13.38;100.00;101192.63;4988606;28;20268;-82
2022/10/28 03:14:58;;;;;;;159.40;150.57;;;13.20;99.90;;;13.37;100.00;101193.50;4987970;28;20319;-83
2022/10/28 03:17:25;;;;;;;70.88;65.85;;;13.20;99.90;;;13.36;100.00;101194.38;4977288;28;20256;-83
2022/10/28 03:19:52;;;;;;;115.00;106.93;;;13.20;99.90;;;13.36;100.00;101189.06;4983314;28;20275;-82
2022/10/28 03:22:19;;;;;;;110.43;102.30;;;13.30;99.90;;;13.36;100.00;101177.53;4986283;28;20228;-83
2022/10/28 03:24:46;;;;;;;93.72;87.20;;;13.20;99.90;;;13.34;100.00;101185.50;5015510;28;20236;-83
2022/10/28 03:27:13;;;;;;;87.95;82.60;;;13.20;99.90;;;13.38;100.00;101192.63;5004915;28;20327;-83
2022/10/28 03:29:40;;;;;;;115.38;109.00;;;13.20;99.90;;;13.38;100.00;101194.38;4986326;28;20248;-83
2022/10/28 03:32:12;;;;;;;114.60;108.07;;;13.20;99.90;;;13.38;100.00;101191.72;4993271;28;20236;-82
2022/10/28 03:34:39;;;;;;;97.95;91.65;;;13.20;99.90;;;13.37;100.00;101195.28;4983856;28;20312;-82
2022/10/28 03:37:06;;;;;;;72.05;66.18;;;13.20;99.90;;;13.37;100.00;101189.94;4979295;28;20264;-83
2022/10/28 03:39:33;;;;;;;75.95;71.00;;;13.20;99.90;;;13.35;100.00;101200.56;4989843;28;20323;-83
2022/10/28 03:42:00;;;;;;;91.88;85.20;;;13.20;99.90;;;13.37;100.00;101197.94;4987886;28;20323;-82
2022/10/28 03:44:27;;;;;;;73.75;67.28;;;13.20;99.90;;;13.36;100.00;101206.78;4981257;28;20321;-83
2022/10/28 03:46:54;;;;;;;48.08;43.38;;;13.20;99.90;;;13.33;100.00;101204.09;4977649;28;20333;-83
2022/10/28 03:49:21;;;;;;;35.28;17.73;;;13.20;99.90;;;13.32;100.00;101197.00;4986682;28;20273;-82
2022/10/28 03:51:49;;;;;;;34.47;11.60;;;13.20;99.90;;;13.29;100.00;101187.22;4985808;28;20263;-81
2022/10/28 03:54:16;;;;;;;36.63;11.38;;;13.20;99.90;;;13.29;100.00;101187.22;4982156;28;20279;-82
2022/10/28 03:56:43;;;;;;;25.63;10.35;;;13.20;99.90;;;13.30;100.00;101188.13;4998627;28;20239;-82
2022/10/28 03:59:10;;;;;;;31.00;8.90;;;13.20;99.90;;;13.27;100.00;101181.00;5002811;28;20360;-81
2022/10/28 04:01:54;;;;;;;32.60;15.77;;;13.10;99.90;;;13.23;100.00;101171.22;4983437;28;20318;-83
2022/10/28 04:04:21;;;;;;;23.38;8.32;;;;;;;13.20;100.00;101172.97;4994225;28;20267;-83
2022/10/28 04:06:56;;;;;;;33.13;7.63;;;;;;;13.20;100.00;101170.31;4983966;28;20303;-82
2022/10/28 04:09:23;;;;;;;27.90;5.72;;;13.10;99.90;;;13.16;100.00;101172.00;4997240;28;20231;-84
2022/10/28 04:11:50;;;;;;;33.00;6.68;;;13.10;99.90;;;13.15;100.00;101172.88;4999815;28;20293;-83
2022/10/28 04:14:17;;;;;;;30.42;6.18;;;13.00;99.90;;;13.07;100.00;101172.81;4983545;28;20224;-83
2022/10/28 04:16:44;;;;;;;31.40;6.25;;;13.00;99.90;;;13.05;100.00;101179.84;4989797;28;20279;-83
2022/10/28 04:19:11;;;;;;;26.73;5.45;;;12.90;99.90;;;13.04;100.00;101182.50;4993808;28;20228;-83
2022/10/28 04:21:38;;;;;;;28.67;5.82;;;12.90;99.90;;;12.98;100.00;101187.72;4983802;28;20224;-83
2022/10/28 04:24:05;;;;;;;24.08;5.50;;;12.80;99.90;;;12.93;100.00;101184.09;4985293;28;20236;-83
2022/10/28 04:26:32;;;;;;;24.83;5.15;;;12.80;99.90;;;12.88;100.00;101197.34;4989923;28;20311;-83
2022/10/28 04:28:59;;;;;;;28.20;5.97;;;12.80;99.90;;;12.84;100.00;101203.47;4988992;28;20248;-82
2022/10/28 04:31:26;;;;;;;22.15;4.82;;;12.70;99.90;;;12.82;100.00;101203.47;4992676;28;20310;-82
2022/10/28 04:33:53;;;;;;;28.90;5.82;;;12.70;99.90;;;12.82;100.00;101202.56;4996461;28;20320;-80
2022/10/28 04:36:20;;;;;;;29.80;6.22;;;12.70;99.90;;;12.86;100.00;101206.16;4986155;28;20327;-81
2022/10/28 04:38:50;;;;;;;28.77;6.10;;;12.70;99.90;;;12.80;100.00;101191.94;4989113;28;20221;-80
2022/10/28 04:41:17;;;;;;;19.48;4.20;;;12.70;99.90;;;12.79;100.00;101195.47;4993731;28;20314;-81
2022/10/28 04:43:44;;;;;;;18.25;4.13;;;12.60;99.90;;;12.75;100.00;101193.63;4992933;28;20251;-80
2022/10/28 04:46:11;;;;;;;26.92;5.63;;;12.60;99.90;;;12.76;100.00;101200.72;4988141;28;20240;-80
2022/10/28 04:48:38;;;;;;;30.10;6.25;;;12.60;99.90;;;12.81;100.00;101200.78;4991948;28;20240;-80
2022/10/28 04:51:05;;;;;;;26.00;5.22;;;12.70;99.90;;;12.79;100.00;101208.72;5005511;28;20224;-78
2022/10/28 04:53:32;;;;;;;30.90;6.90;;;12.60;99.90;;;12.78;100.00;101206.94;4986999;28;20228;-82
2022/10/28 04:56:00;;;;;;;25.17;4.93;;;12.70;99.90;;;12.72;100.00;101203.31;4995166;28;20282;-80
2022/10/28 04:58:27;;;;;;;30.85;6.05;;;12.60;99.90;;;12.71;100.00;101201.53;4989070;28;20255;-82
2022/10/28 05:00:54;;;;;;;27.13;4.97;;;12.60;99.90;;;12.74;100.00;101207.78;4988310;28;20224;-83
2022/10/28 05:03:22;;;;;;;27.58;5.38;;;12.50;99.90;;;12.65;100.00;101197.06;4986218;28;20228;-81
2022/10/28 05:05:49;;;;;;;31.52;6.57;;;12.50;99.90;;;12.65;100.00;101205.00;4985815;28;20252;-82
2022/10/28 05:08:16;;;;;;;36.80;7.90;;;12.50;99.90;;;12.61;100.00;101191.69;4988577;28;20587;-81
2022/10/28 05:10:47;;;;;;;18.67;4.03;;;12.50;99.90;;;12.55;100.00;101187.19;4990420;28;20232;-81
2022/10/28 05:13:14;;;;;;;28.83;6.03;;;12.40;99.90;;;12.55;100.00;101200.47;4990974;28;20232;-83
2022/10/28 05:15:41;;;;;;;29.90;6.45;;;12.40;99.90;;;12.62;100.00;101199.66;4993925;28;20610;-83
2022/10/28 05:18:09;;;;;;;24.80;5.50;;;12.40;99.90;;;12.58;100.00;101195.19;5006307;28;20314;-82
2022/10/28 05:20:36;;;;;;;32.17;6.63;;;12.40;99.90;;;12.54;100.00;101189.81;4987480;28;20654;-83
2022/10/28 05:23:03;;;;;;;25.45;5.25;;;12.40;99.90;;;12.54;100.00;101197.78;4985867;28;20228;-83
2022/10/28 05:25:30;;;;;;;27.42;5.55;;;12.40;99.90;;;12.49;100.00;101195.97;4979899;28;20430;-84
2022/10/28 05:27:59;;;;;;;40.55;8.73;;;12.40;99.90;;;12.47;100.00;101187.09;5001699;28;20291;-84
2022/10/28 05:30:27;;;;;;;34.55;7.43;;;12.30;99.90;;;12.52;100.00;101194.22;4966400;28;20298;-84
2022/10/28 05:33:01;;;;;;;34.65;7.07;;;12.40;99.90;;;12.50;100.00;101192.44;4979331;28;20256;-84
2022/10/28 05:35:29;;;;;;;26.92;5.60;;;12.40;99.90;;;12.49;100.00;101187.13;4985413;28;20306;-84
2022/10/28 05:37:57;;;;;;;26.15;5.40;;;12.30;99.90;;;12.46;100.00;101189.72;4990695;28;20263;-84
2022/10/28 05:40:24;;;;;;;26.20;5.63;;;12.30;99.90;;;12.48;100.00;101185.34;5001485;28;20293;-85
2022/10/28 05:42:51;;;;;;;25.77;5.55;;;12.30;99.90;;;12.53;100.00;101191.59;4985968;28;20253;-83
2022/10/28 05:45:19;;;;;;;33.90;7.18;;;12.40;99.90;;;12.61;100.00;101205.84;4981675;28;20243;-84
2022/10/28 05:47:47;;;;;;;35.97;7.40;;;12.40;99.90;;;12.59;100.00;101202.28;4996729;28;20275;-84
2022/10/28 05:50:17;;;;;;;33.08;6.72;;;12.40;99.90;;;12.60;100.00;101208.47;4984954;28;20228;-84
2022/10/28 05:52:50;;;;;;;24.48;4.93;;;12.40;99.90;;;12.60;100.00;101205.81;4982784;28;20298;-84
2022/10/28 05:55:20;;;;;;;30.48;6.45;;;12.50;99.90;;;12.61;100.00;101211.16;5002086;28;20319;-84
2022/10/28 05:57:49;;;;;;;25.13;5.15;;;12.40;99.90;;;12.64;100.00;101205.00;5003044;28;20288;-84
2022/10/28 06:00:19;;;;;;;23.50;4.70;;;12.50;99.90;;;12.61;100.00;101211.16;4990430;28;20224;-84
2022/10/28 06:02:47;;;;;;;27.90;6.32;;;12.50;99.90;;;12.57;100.00;101213.75;4982256;28;20323;-84
2022/10/28 06:05:14;;;;;;;32.60;6.75;;;12.40;99.90;;;12.55;100.00;101220.78;5000273;28;20278;-83
2022/10/28 06:07:42;;;;;;;30.48;8.98;;;;;;;12.56;100.00;101231.44;4979491;28;20264;-83
2022/10/28 06:10:10;;;;;;;30.48;6.38;;;12.40;99.90;;;12.58;100.00;101231.44;4986807;28;20268;-84
2022/10/28 06:12:37;;;;;;;25.75;5.35;;;12.40;99.90;;;12.55;100.00;101234.06;4975338;28;20228;-84
2022/10/28 06:15:05;;;;;;;37.83;7.72;;;12.40;99.90;;;12.53;100.00;101226.09;4993404;28;20228;-84
2022/10/28 06:17:32;;;;;;;25.48;5.13;;;12.40;99.90;;;12.55;100.00;101229.66;4980093;28;20239;-84
2022/10/28 06:19:59;;;;;;;28.60;6.55;;;12.40;99.90;;;12.53;100.00;101228.72;4980673;28;20260;-83
2022/10/28 06:22:27;;;;;;;25.95;5.38;;;12.40;99.90;;;12.54;100.00;101222.56;4978537;28;20249;-84
2022/10/28 06:24:54;;;;;;;28.23;5.57;;;12.40;99.90;;;12.54;100.00;101224.31;4980431;28;20256;-84
2022/10/28 06:27:21;;;;;;;24.95;5.07;;;12.40;99.90;;;12.53;100.00;101225.19;4979648;28;20232;-84
2022/10/28 06:29:48;;;;;;;25.63;5.55;;;12.40;99.90;;;12.53;100.00;101233.16;4988382;28;20232;-84
2022/10/28 06:32:15;;;;;;;27.05;5.53;;;12.40;99.90;;;12.53;100.00;101239.34;4982669;28;20256;-84
2022/10/28 06:34:42;;;;;;;27.55;5.50;;;12.40;99.90;;;12.54;100.00;101232.28;4979197;28;20228;-83
2022/10/28 06:37:09;;;;;;;39.30;7.68;;;12.40;99.90;;;12.56;100.00;101238.50;4984450;28;20335;-84
2022/10/28 06:39:38;;;;;;;20.08;4.10;;;12.40;99.90;;;12.57;100.00;101249.13;4979627;28;20325;-83
2022/10/28 06:42:08;;;;;;;18.33;3.85;;;12.40;99.90;;;12.59;100.00;101251.81;4982277;28;20298;-84
2022/10/28 06:44:36;;;;;;;24.40;5.05;;;12.50;99.90;;;12.57;100.00;101249.13;4984853;28;20237;-82
2022/10/28 06:47:03;;;;;;;19.83;4.10;;;12.40;99.90;;;12.61;100.00;101252.72;4985373;28;20240;-83
2022/10/28 06:49:30;;;;;;;25.15;6.32;;;12.50;99.90;;;12.59;100.00;101254.47;4990742;28;20270;-83
2022/10/28 06:51:57;;;;;;;23.33;5.20;;;12.50;99.90;;;12.65;100.00;101266.06;4992577;28;20285;-83
2022/10/28 06:54:24;;;;;;;24.50;5.03;;;12.50;99.90;;;12.67;100.00;101261.66;4985604;28;20236;-84
2022/10/28 06:56:51;;;;;;;28.75;5.97;;;12.50;99.90;;;12.69;100.00;101267.88;4980165;28;20286;-84
2022/10/28 06:59:19;;;;;;;67.55;13.75;;;;;;;12.72;100.00;101281.19;4966701;28;20240;-84
2022/10/28 07:02:02;;;;;;;48.28;9.35;;;12.60;99.90;;;12.72;100.00;101280.28;4950714;28;20227;-84
2022/10/28 07:04:32;;;;;;;38.45;7.85;;;12.60;99.90;;;12.74;100.00;101282.09;4956557;28;20246;-83
2022/10/28 07:07:20;;;;;;;77.03;14.88;;;12.60;99.90;;;12.79;100.00;101282.16;4959234;28;20236;-83
2022/10/28 07:09:54;;;;;;;31.35;6.30;;;12.60;99.90;;;12.86;100.00;101288.44;4979048;28;20237;-84
2022/10/28 07:12:21;;;;;;;30.27;6.05;;;12.80;99.90;;;12.92;100.00;101292.06;4985030;28;20224;-83
2022/10/28 07:14:48;;;;;;;26.85;5.43;;;12.70;99.90;;;12.92;100.00;101289.41;5002389;28;20236;-85
2022/10/28 07:17:16;;;;;;;31.65;6.10;;;12.80;99.90;;;12.91;100.00;101292.94;4987647;28;20232;-84
2022/10/28 07:19:43;;;;;;;24.58;5.07;;;12.80;99.90;;;12.93;100.00;101291.19;4989694;28;20263;-83
2022/10/28 07:22:10;;;;;;;18.27;3.80;;;12.80;99.90;;;12.93;100.00;101300.94;4980984;28;20225;-84
2022/10/28 07:24:37;;;;;;;16.52;3.45;;;12.80;99.90;;;12.97;100.00;101305.41;4993389;28;20240;-83
2022/10/28 07:27:04;;;;;;;18.67;3.58;;;12.80;99.90;;;12.99;100.00;101298.34;4993361;28;20239;-84
2022/10/28 07:29:31;;;;;;;17.60;3.75;;;12.90;99.90;;;12.99;100.00;101301.91;4989594;28;20253;-83
2022/10/28 07:31:58;;;;;;;37.40;7.38;;;12.80;99.90;;;13.01;100.00;101308.16;4984860;28;20644;-85
2022/10/28 07:34:26;;;;;;;19.52;3.97;;;12.90;99.90;;;13.05;100.00;101299.34;4987359;28;20235;-83
2022/10/28 07:36:56;;;;;;;28.45;5.85;;;12.90;99.90;;;13.08;100.00;101309.13;4988113;28;20239;-84
2022/10/28 07:39:23;;;;;;;27.67;5.28;;;12.90;99.90;;;13.11;100.00;101314.47;4984309;28;20308;-85
2022/10/28 07:41:53;;;;;;;26.48;5.22;;;12.90;99.90;;;13.18;100.00;101320.78;4992072;28;20232;-84
2022/10/28 07:44:20;;;;;;;33.75;6.45;;;13.00;99.90;;;13.19;100.00;101311.94;4987185;28;20704;-84
2022/10/28 07:46:48;;;;;;;31.80;5.72;;;13.00;99.90;;;13.26;100.00;101324.44;4977684;28;20228;-83
2022/10/28 07:49:18;;;;;;;36.53;7.25;;;13.10;99.90;;;13.29;100.00;101329.78;4986165;28;20247;-84
2022/10/28 07:51:49;;;;;;;29.27;5.50;;;13.10;99.90;;;13.28;100.00;101333.31;4992419;28;20349;-84
2022/10/28 07:54:16;;;;;;;38.58;7.00;;;13.10;99.90;;;13.31;100.00;101336.91;4969405;28;20228;-84
2022/10/28 07:56:44;;;;;;;23.08;4.80;;;13.10;99.90;;;13.36;100.00;101344.91;4968910;28;20234;-84
2022/10/28 07:59:11;;;;;;;22.60;4.43;;;13.20;99.90;;;13.44;100.00;101345.91;5008744;28;20219;-85
2022/10/28 08:01:39;;;;;;;23.70;4.80;;;13.20;99.90;;;13.47;100.00;101345.06;4977479;28;20307;-83
2022/10/28 08:04:11;;;;;;;19.58;4.00;;;13.20;99.90;;;13.52;100.00;101338.91;4987288;28;20236;-84
2022/10/28 08:06:43;;;;;;;26.80;5.22;;;13.30;99.90;;;13.57;100.00;101344.28;4975588;28;20235;-85
2022/10/28 08:09:15;;;;;;;27.48;5.28;;;13.30;99.90;;;13.63;100.00;101341.69;4987199;28;20228;-85
2022/10/28 08:11:47;;;;;;;26.13;5.10;;;13.40;99.90;;;13.67;100.00;101341.75;4975210;28;20233;-85
2022/10/28 08:14:22;;;;;;;45.38;7.82;;;13.50;99.90;;;13.71;100.00;101342.66;4958545;28;20366;-85
2022/10/28 08:17:16;;;;;;;24.50;4.80;;;13.50;99.90;;;13.76;100.00;101336.53;4982785;28;20249;-84
2022/10/28 08:19:44;;;;;;;26.80;5.38;;;13.60;99.90;;;13.81;100.00;101341.00;4959639;28;20409;-84
2022/10/28 08:22:47;;;;;;;20.73;4.03;;;13.60;99.90;;;13.84;100.00;101333.94;4970510;28;20248;-84
2022/10/28 08:25:31;;;;;;;88.85;16.75;;;13.70;99.90;;;13.89;100.00;101333.97;4965486;28;20358;-84
2022/10/28 08:28:00;;;;;;;27.33;5.60;;;13.70;99.90;;;13.94;100.00;101332.25;4957097;28;20224;-84
2022/10/28 08:30:46;;;;;;;26.05;5.22;;;13.70;99.90;;;13.99;100.00;101335.84;4982734;28;20231;-85
2022/10/28 08:33:38;;;;;;;36.13;7.38;;;13.80;99.90;;;13.99;100.00;101326.09;4942639;28;20225;-82
2022/10/28 08:36:31;;;;;;;47.67;8.45;;;13.90;99.90;;;14.06;100.00;101327.06;4918121;28;20289;-82
2022/10/28 08:39:07;;;;;;;26.63;5.38;;;13.90;99.90;;;14.12;100.00;101320.91;4912850;28;20289;-83
2022/10/28 08:42:03;;;;;;;50.20;9.10;;;13.90;99.90;;;14.19;100.00;101317.41;4925586;28;20239;-83
2022/10/28 08:44:41;;;;;;;20.85;5.07;;;14.00;99.90;;;14.24;100.00;101315.69;4987261;28;20220;-83
2022/10/28 08:47:36;;;;;;;19.85;3.95;;;13.50;99.90;;;14.33;100.00;101307.81;4990763;28;20235;-82
2022/10/28 08:50:14;;;;;;;24.80;5.03;;;14.10;99.90;;;14.33;100.00;101310.47;4986338;28;20260;-83
2022/10/28 08:53:14;;;;;;;32.47;6.40;;;14.20;99.90;;;14.45;100.00;101323.00;4985235;28;20239;-83
2022/10/28 08:55:47;;;;;;;27.60;5.68;;;14.20;99.90;;;14.53;100.00;101318.63;4989416;28;20243;-83
2022/10/28 08:58:33;;;;;;;39.22;6.90;;;14.30;99.90;;;14.59;100.00;101306.25;4952210;28;20232;-83
2022/10/28 09:01:06;;;;;;;62.38;11.05;;;14.40;99.90;;;14.59;100.00;101287.63;4976591;28;20282;-83
2022/10/28 09:03:59;;;;;;;44.83;8.68;;;14.50;99.90;;;14.65;100.00;101300.97;4932763;28;20224;-84
2022/10/28 09:06:32;;;;;;;76.82;14.02;;;14.50;99.90;;;14.74;100.00;101310.78;4952205;28;20263;-83
2022/10/28 09:09:03;;;;;;;36.00;6.70;;;14.00;99.90;;;14.70;100.00;101308.97;4987856;28;20236;-84
2022/10/28 09:15:44;;;;;;;36.35;7.57;;;14.50;99.90;;;14.63;100.00;101296.50;4987173;28;20236;-84
2022/10/28 09:18:43;;;;;;;19.52;4.20;;;14.50;99.90;;;14.66;100.00;101296.53;4981750;28;20227;-83
2022/10/28 09:22:13;;;;;;;22.90;4.50;;;14.50;99.90;;;14.79;100.00;101293.06;4975902;28;20307;-85
2022/10/28 09:24:59;;;;;;;33.28;7.22;;;14.60;99.90;;;15.03;100.00;101310.94;4955114;28;20236;-84
2022/10/28 09:28:11;;;;;;;48.90;8.63;;;14.80;99.90;;;15.03;100.00;101297.59;4980927;28;20235;-85
2022/10/28 09:31:08;;;;;;;25.23;4.95;;;14.30;99.90;;;15.12;100.00;101294.97;4975459;28;20228;-85
2022/10/28 09:33:49;;;;;;;20.42;4.03;;;14.90;99.90;;;15.19;100.00;101288.78;4975297;28;20231;-84
2022/10/28 09:36:43;;;;;;;48.65;8.57;;;14.90;99.90;;;15.27;100.00;101286.16;4976328;28;20575;-85
2022/10/28 09:39:19;;;;;;;23.50;4.85;;;15.10;99.90;;;15.34;100.00;101288.84;4990057;28;20246;-85
2022/10/28 09:41:59;;;;;;;43.30;7.72;;;15.10;99.90;;;15.28;100.00;101274.63;4969357;28;20390;-85
2022/10/28 09:44:57;;;;;;;26.35;5.53;;;15.10;99.90;;;15.27;100.00;101272.84;4961371;28;20231;-85
2022/10/28 09:47:36;;;;;;;49.03;9.13;;;14.40;99.90;;;15.13;100.00;101258.56;4970369;28;20358;-84
2022/10/28 09:50:22;;;;;;;27.35;5.43;;;15.00;99.90;;;15.19;100.00;101267.47;4971049;28;20236;-83
2022/10/28 09:53:39;;;;;;;90.32;16.33;;;15.00;99.90;;;15.31;100.00;101269.28;4974242;28;20223;-85
2022/10/28 09:56:10;;;;;;;20.60;4.28;;;15.10;99.90;;;15.46;100.00;101280.00;4998921;28;20235;-84
2022/10/28 09:58:44;;;;;;;45.10;7.95;;;15.20;99.90;;;15.46;100.00;101257.78;4920166;28;20291;-84
2022/10/28 10:01:13;;;;;;;17.75;3.42;;;15.20;99.90;;;15.48;100.00;101258.66;4968234;28;20230;-83
2022/10/28 10:03:40;;;;;;;29.30;5.90;;;15.30;99.90;;;15.59;100.00;101263.16;4959783;28;20243;-84
2022/10/28 10:06:38;;;;;;;28.40;5.50;;;15.30;99.90;;;16.00;100.00;101295.25;4975899;28;20231;-84
2022/10/28 10:09:26;;;;;;;41.08;8.30;;;15.50;99.90;;;16.21;100.00;101289.03;4965208;28;20258;-84
2022/10/28 10:12:09;;;;;;;51.90;10.07;;;15.90;99.90;;;16.47;100.00;101282.78;4941360;28;20236;-84
2022/10/28 10:14:46;;;;;;;19.02;3.97;;;15.30;99.90;;;16.53;100.00;101261.41;4978018;28;20283;-84
2022/10/28 10:17:38;;;;;;;28.05;5.07;;;16.30;99.90;;;16.43;100.00;101247.19;4953364;28;20239;-84
2022/10/28 10:20:22;;;;;;;24.23;4.75;;;16.20;99.90;;;16.54;100.00;101252.50;4987682;28;20612;-85
2022/10/28 10:22:51;;;;;;;52.25;9.35;;;16.30;99.90;;;16.66;100.00;101254.28;4953990;28;20252;-84
2022/10/28 10:25:19;;;;;;;30.90;5.78;;;16.40;99.90;;;16.66;100.00;101240.94;4989376;28;20240;-85
2022/10/28 10:28:16;;;;;;;55.22;10.70;;;16.40;99.90;;;16.74;100.00;101242.66;4972362;28;20716;-81
2022/10/28 10:31:24;;;;;;;48.30;9.23;;;16.50;99.90;;;16.91;100.00;101246.22;4938051;28;20225;-82